sensor_id;sensor_type;location;lat;lon;timestamp;P1;durP1;ratioP1;P2;durP2;ratioP2
9102;SDS011;4587;51.434;6.788;2024-02-16T00:00:16;2.63;;;1.77;;
9102;SDS011;4587;51.434;6.788;2024-02-16T00:02:42;3.20;;;1.60;;
9102;SDS011;4587;51.434;6.788;2024-02-16T00:05:08;4.93;;;2.00;;
9102;SDS011;4587;51.434;6.788;2024-02-16T00:07:36;3.70;;;1.90;;
9102;SDS011;4587;51.434;6.788;2024-02-16T00:10:03;2.40;;;1.40;;
9102;SDS011;4587;51.434;6.788;2024-02-16T00:12:29;5.30;;;2.07;;
9102;SDS011;4587;51.434;6.788;2024-02-16T00:14:56;3.23;;;1.70;;
9102;SDS011;4587;51.434;6.788;2024-02-16T00:17:21;5.00;;;1.90;;
9102;SDS011;4587;51.434;6.788;2024-02-16T00:19:47;3.53;;;1.80;;
9102;SDS011;4587;51.434;6.788;2024-02-16T00:22:12;2.73;;;1.60;;
9102;SDS011;4587;51.434;6.788;2024-02-16T00:24:38;5.37;;;1.80;;
9102;SDS011;4587;51.434;6.788;2024-02-16T00:27:03;2.10;;;1.57;;
9102;SDS011;4587;51.434;6.788;2024-02-16T00:29:30;4.33;;;1.70;;
9102;SDS011;4587;51.434;6.788;2024-02-16T00:31:56;3.37;;;1.90;;
9102;SDS011;4587;51.434;6.788;2024-02-16T00:34:24;3.63;;;1.83;;
9102;SDS011;4587;51.434;6.788;2024-02-16T00:36:50;4.07;;;2.03;;
9102;SDS011;4587;51.434;6.788;2024-02-16T00:39:15;3.67;;;1.77;;
9102;SDS011;4587;51.434;6.788;2024-02-16T00:41:41;4.07;;;1.70;;
9102;SDS011;4587;51.434;6.788;2024-02-16T00:44:06;4.90;;;1.90;;
9102;SDS011;4587;51.434;6.788;2024-02-16T00:46:32;3.83;;;1.50;;
9102;SDS011;4587;51.434;6.788;2024-02-16T00:49:01;2.83;;;1.73;;
9102;SDS011;4587;51.434;6.788;2024-02-16T00:51:26;2.83;;;1.73;;
9102;SDS011;4587;51.434;6.788;2024-02-16T00:53:52;3.90;;;1.97;;
9102;SDS011;4587;51.434;6.788;2024-02-16T00:56:18;3.73;;;1.70;;
9102;SDS011;4587;51.434;6.788;2024-02-16T00:58:43;3.53;;;1.77;;
9102;SDS011;4587;51.434;6.788;2024-02-16T01:01:09;4.87;;;1.67;;
9102;SDS011;4587;51.434;6.788;2024-02-16T01:03:37;3.67;;;1.90;;
9102;SDS011;4587;51.434;6.788;2024-02-16T01:06:06;4.33;;;2.00;;
9102;SDS011;4587;51.434;6.788;2024-02-16T01:08:34;6.27;;;1.93;;
9102;SDS011;4587;51.434;6.788;2024-02-16T01:10:59;2.53;;;1.67;;
9102;SDS011;4587;51.434;6.788;2024-02-16T01:13:25;3.57;;;1.70;;
9102;SDS011;4587;51.434;6.788;2024-02-16T01:15:50;5.50;;;1.80;;
9102;SDS011;4587;51.434;6.788;2024-02-16T01:18:17;3.07;;;1.80;;
9102;SDS011;4587;51.434;6.788;2024-02-16T01:20:42;3.23;;;1.60;;
9102;SDS011;4587;51.434;6.788;2024-02-16T01:23:08;3.80;;;1.83;;
9102;SDS011;4587;51.434;6.788;2024-02-16T01:25:33;3.23;;;1.80;;
9102;SDS011;4587;51.434;6.788;2024-02-16T01:27:59;2.80;;;1.63;;
9102;SDS011;4587;51.434;6.788;2024-02-16T01:30:24;1.60;;;1.50;;
9102;SDS011;4587;51.434;6.788;2024-02-16T01:32:50;2.50;;;1.70;;
9102;SDS011;4587;51.434;6.788;2024-02-16T01:35:16;3.53;;;1.80;;
9102;SDS011;4587;51.434;6.788;2024-02-16T01:37:41;3.20;;;1.80;;
9102;SDS011;4587;51.434;6.788;2024-02-16T01:40:08;4.00;;;1.37;;
9102;SDS011;4587;51.434;6.788;2024-02-16T01:42:39;2.87;;;1.80;;
9102;SDS011;4587;51.434;6.788;2024-02-16T01:45:05;3.13;;;1.80;;
9102;SDS011;4587;51.434;6.788;2024-02-16T01:47:32;4.13;;;2.20;;
9102;SDS011;4587;51.434;6.788;2024-02-16T01:49:57;4.60;;;1.73;;
9102;SDS011;4587;51.434;6.788;2024-02-16T01:52:23;2.70;;;1.70;;
9102;SDS011;4587;51.434;6.788;2024-02-16T01:54:49;3.03;;;1.90;;
9102;SDS011;4587;51.434;6.788;2024-02-16T01:57:14;3.60;;;1.73;;
9102;SDS011;4587;51.434;6.788;2024-02-16T01:59:40;3.17;;;1.87;;
9102;SDS011;4587;51.434;6.788;2024-02-16T02:02:06;2.80;;;1.87;;
9102;SDS011;4587;51.434;6.788;2024-02-16T02:04:32;3.00;;;1.73;;
9102;SDS011;4587;51.434;6.788;2024-02-16T02:06:58;2.23;;;1.77;;
9102;SDS011;4587;51.434;6.788;2024-02-16T02:09:23;3.23;;;2.00;;
9102;SDS011;4587;51.434;6.788;2024-02-16T02:11:49;3.47;;;2.00;;
9102;SDS011;4587;51.434;6.788;2024-02-16T02:14:14;3.23;;;1.83;;
9102;SDS011;4587;51.434;6.788;2024-02-16T02:16:40;4.73;;;1.90;;
9102;SDS011;4587;51.434;6.788;2024-02-16T02:19:05;3.43;;;1.67;;
9102;SDS011;4587;51.434;6.788;2024-02-16T02:21:31;4.30;;;2.00;;
9102;SDS011;4587;51.434;6.788;2024-02-16T02:23:57;3.50;;;2.00;;
9102;SDS011;4587;51.434;6.788;2024-02-16T02:26:22;2.33;;;1.70;;
9102;SDS011;4587;51.434;6.788;2024-02-16T02:28:48;3.93;;;1.97;;
9102;SDS011;4587;51.434;6.788;2024-02-16T02:31:13;3.17;;;1.80;;
9102;SDS011;4587;51.434;6.788;2024-02-16T02:33:39;3.87;;;1.90;;
9102;SDS011;4587;51.434;6.788;2024-02-16T02:36:04;3.33;;;1.70;;
9102;SDS011;4587;51.434;6.788;2024-02-16T02:38:30;3.77;;;1.80;;
9102;SDS011;4587;51.434;6.788;2024-02-16T02:40:56;6.47;;;2.10;;
9102;SDS011;4587;51.434;6.788;2024-02-16T02:43:21;5.20;;;1.70;;
9102;SDS011;4587;51.434;6.788;2024-02-16T02:45:48;3.13;;;1.87;;
9102;SDS011;4587;51.434;6.788;2024-02-16T02:48:13;3.07;;;1.90;;
9102;SDS011;4587;51.434;6.788;2024-02-16T02:50:39;2.50;;;1.60;;
9102;SDS011;4587;51.434;6.788;2024-02-16T02:53:04;2.73;;;1.70;;
9102;SDS011;4587;51.434;6.788;2024-02-16T02:55:30;3.33;;;1.50;;
9102;SDS011;4587;51.434;6.788;2024-02-16T02:57:56;3.07;;;1.73;;
9102;SDS011;4587;51.434;6.788;2024-02-16T03:00:22;4.10;;;1.70;;
9102;SDS011;4587;51.434;6.788;2024-02-16T03:02:48;3.43;;;1.93;;
9102;SDS011;4587;51.434;6.788;2024-02-16T03:05:14;2.77;;;1.90;;
9102;SDS011;4587;51.434;6.788;2024-02-16T03:07:40;5.07;;;1.80;;
9102;SDS011;4587;51.434;6.788;2024-02-16T03:10:06;3.47;;;1.90;;
9102;SDS011;4587;51.434;6.788;2024-02-16T03:12:34;3.97;;;1.53;;
9102;SDS011;4587;51.434;6.788;2024-02-16T03:14:59;3.17;;;1.70;;
9102;SDS011;4587;51.434;6.788;2024-02-16T03:17:25;4.30;;;1.90;;
9102;SDS011;4587;51.434;6.788;2024-02-16T03:19:50;4.43;;;1.80;;
9102;SDS011;4587;51.434;6.788;2024-02-16T03:22:16;3.27;;;1.60;;
9102;SDS011;4587;51.434;6.788;2024-02-16T03:24:42;3.73;;;1.80;;
9102;SDS011;4587;51.434;6.788;2024-02-16T03:27:09;5.50;;;1.80;;
9102;SDS011;4587;51.434;6.788;2024-02-16T03:29:35;3.40;;;1.70;;
9102;SDS011;4587;51.434;6.788;2024-02-16T03:32:01;3.20;;;1.70;;
9102;SDS011;4587;51.434;6.788;2024-02-16T03:34:27;3.23;;;1.60;;
9102;SDS011;4587;51.434;6.788;2024-02-16T03:36:52;2.60;;;1.60;;
9102;SDS011;4587;51.434;6.788;2024-02-16T03:39:19;3.37;;;1.70;;
9102;SDS011;4587;51.434;6.788;2024-02-16T03:41:45;3.10;;;2.00;;
9102;SDS011;4587;51.434;6.788;2024-02-16T03:44:13;3.47;;;1.63;;
9102;SDS011;4587;51.434;6.788;2024-02-16T03:46:39;2.93;;;2.00;;
9102;SDS011;4587;51.434;6.788;2024-02-16T03:49:05;2.23;;;1.63;;
9102;SDS011;4587;51.434;6.788;2024-02-16T03:51:30;5.40;;;1.83;;
9102;SDS011;4587;51.434;6.788;2024-02-16T03:53:56;3.10;;;2.00;;
9102;SDS011;4587;51.434;6.788;2024-02-16T03:56:21;2.70;;;1.50;;
9102;SDS011;4587;51.434;6.788;2024-02-16T03:58:47;5.00;;;2.00;;
9102;SDS011;4587;51.434;6.788;2024-02-16T04:01:12;6.23;;;2.13;;
9102;SDS011;4587;51.434;6.788;2024-02-16T04:03:38;2.10;;;1.70;;
9102;SDS011;4587;51.434;6.788;2024-02-16T04:06:03;2.17;;;1.73;;
9102;SDS011;4587;51.434;6.788;2024-02-16T04:08:29;4.47;;;1.93;;
9102;SDS011;4587;51.434;6.788;2024-02-16T04:10:55;3.80;;;1.70;;
9102;SDS011;4587;51.434;6.788;2024-02-16T04:13:21;3.20;;;1.80;;
9102;SDS011;4587;51.434;6.788;2024-02-16T04:15:47;4.90;;;1.80;;
9102;SDS011;4587;51.434;6.788;2024-02-16T04:18:12;3.83;;;1.97;;
9102;SDS011;4587;51.434;6.788;2024-02-16T04:20:38;6.00;;;2.17;;
9102;SDS011;4587;51.434;6.788;2024-02-16T04:23:06;2.63;;;1.70;;
9102;SDS011;4587;51.434;6.788;2024-02-16T04:25:31;3.17;;;1.63;;
9102;SDS011;4587;51.434;6.788;2024-02-16T04:27:57;3.03;;;1.87;;
9102;SDS011;4587;51.434;6.788;2024-02-16T04:30:22;3.67;;;1.90;;
9102;SDS011;4587;51.434;6.788;2024-02-16T04:32:48;3.40;;;2.07;;
9102;SDS011;4587;51.434;6.788;2024-02-16T04:35:13;4.03;;;1.90;;
9102;SDS011;4587;51.434;6.788;2024-02-16T04:37:39;3.30;;;2.00;;
9102;SDS011;4587;51.434;6.788;2024-02-16T04:40:05;3.97;;;1.97;;
9102;SDS011;4587;51.434;6.788;2024-02-16T04:42:31;3.10;;;1.70;;
9102;SDS011;4587;51.434;6.788;2024-02-16T04:44:57;3.80;;;1.83;;
9102;SDS011;4587;51.434;6.788;2024-02-16T04:47:24;2.93;;;1.93;;
9102;SDS011;4587;51.434;6.788;2024-02-16T04:49:50;3.77;;;1.77;;
9102;SDS011;4587;51.434;6.788;2024-02-16T04:52:16;2.70;;;1.77;;
9102;SDS011;4587;51.434;6.788;2024-02-16T04:54:41;2.80;;;1.90;;
9102;SDS011;4587;51.434;6.788;2024-02-16T04:57:07;5.33;;;2.07;;
9102;SDS011;4587;51.434;6.788;2024-02-16T04:59:32;3.67;;;1.97;;
9102;SDS011;4587;51.434;6.788;2024-02-16T05:01:58;3.60;;;1.73;;
9102;SDS011;4587;51.434;6.788;2024-02-16T05:04:23;5.30;;;2.13;;
9102;SDS011;4587;51.434;6.788;2024-02-16T05:06:49;5.23;;;2.10;;
9102;SDS011;4587;51.434;6.788;2024-02-16T05:09:17;3.40;;;1.90;;
9102;SDS011;4587;51.434;6.788;2024-02-16T05:11:43;3.80;;;1.90;;
9102;SDS011;4587;51.434;6.788;2024-02-16T05:14:10;4.30;;;2.20;;
9102;SDS011;4587;51.434;6.788;2024-02-16T05:16:37;5.73;;;2.00;;
9102;SDS011;4587;51.434;6.788;2024-02-16T05:19:07;4.90;;;2.23;;
9102;SDS011;4587;51.434;6.788;2024-02-16T05:21:32;5.07;;;2.23;;
9102;SDS011;4587;51.434;6.788;2024-02-16T05:23:59;5.00;;;2.20;;
9102;SDS011;4587;51.434;6.788;2024-02-16T05:26:24;3.40;;;1.80;;
9102;SDS011;4587;51.434;6.788;2024-02-16T05:28:50;3.13;;;2.03;;
9102;SDS011;4587;51.434;6.788;2024-02-16T05:31:17;3.00;;;2.00;;
9102;SDS011;4587;51.434;6.788;2024-02-16T05:33:43;4.33;;;2.27;;
9102;SDS011;4587;51.434;6.788;2024-02-16T05:36:12;3.23;;;1.90;;
9102;SDS011;4587;51.434;6.788;2024-02-16T05:38:41;3.83;;;2.00;;
9102;SDS011;4587;51.434;6.788;2024-02-16T05:41:08;4.33;;;1.93;;
9102;SDS011;4587;51.434;6.788;2024-02-16T05:43:34;4.93;;;2.07;;
9102;SDS011;4587;51.434;6.788;2024-02-16T05:45:59;4.33;;;2.20;;
9102;SDS011;4587;51.434;6.788;2024-02-16T05:48:25;4.17;;;2.30;;
9102;SDS011;4587;51.434;6.788;2024-02-16T05:50:56;5.20;;;2.03;;
9102;SDS011;4587;51.434;6.788;2024-02-16T05:53:25;3.23;;;2.10;;
9102;SDS011;4587;51.434;6.788;2024-02-16T05:55:50;2.63;;;2.20;;
9102;SDS011;4587;51.434;6.788;2024-02-16T05:58:16;4.13;;;2.00;;
9102;SDS011;4587;51.434;6.788;2024-02-16T06:00:42;2.50;;;2.30;;
9102;SDS011;4587;51.434;6.788;2024-02-16T06:03:08;4.40;;;2.17;;
9102;SDS011;4587;51.434;6.788;2024-02-16T06:05:33;3.90;;;1.93;;
9102;SDS011;4587;51.434;6.788;2024-02-16T06:07:59;4.27;;;2.07;;
9102;SDS011;4587;51.434;6.788;2024-02-16T06:10:25;4.83;;;2.47;;
9102;SDS011;4587;51.434;6.788;2024-02-16T06:12:51;4.60;;;2.23;;
9102;SDS011;4587;51.434;6.788;2024-02-16T06:15:17;4.27;;;2.00;;
9102;SDS011;4587;51.434;6.788;2024-02-16T06:17:42;5.00;;;2.60;;
9102;SDS011;4587;51.434;6.788;2024-02-16T06:20:08;5.93;;;2.40;;
9102;SDS011;4587;51.434;6.788;2024-02-16T06:22:38;5.47;;;2.47;;
9102;SDS011;4587;51.434;6.788;2024-02-16T06:25:04;5.60;;;2.33;;
9102;SDS011;4587;51.434;6.788;2024-02-16T06:27:30;4.60;;;2.23;;
9102;SDS011;4587;51.434;6.788;2024-02-16T06:29:56;4.33;;;2.17;;
9102;SDS011;4587;51.434;6.788;2024-02-16T06:32:21;4.73;;;2.20;;
9102;SDS011;4587;51.434;6.788;2024-02-16T06:34:47;4.97;;;2.40;;
9102;SDS011;4587;51.434;6.788;2024-02-16T06:37:12;5.70;;;2.40;;
9102;SDS011;4587;51.434;6.788;2024-02-16T06:39:38;5.63;;;2.17;;
9102;SDS011;4587;51.434;6.788;2024-02-16T06:42:03;4.50;;;2.43;;
9102;SDS011;4587;51.434;6.788;2024-02-16T06:44:29;5.00;;;2.30;;
9102;SDS011;4587;51.434;6.788;2024-02-16T06:46:55;4.93;;;2.40;;
9102;SDS011;4587;51.434;6.788;2024-02-16T06:49:20;3.10;;;2.20;;
9102;SDS011;4587;51.434;6.788;2024-02-16T06:51:46;7.03;;;2.67;;
9102;SDS011;4587;51.434;6.788;2024-02-16T06:54:11;3.03;;;2.27;;
9102;SDS011;4587;51.434;6.788;2024-02-16T06:56:37;3.93;;;2.13;;
9102;SDS011;4587;51.434;6.788;2024-02-16T06:59:02;7.03;;;2.30;;
9102;SDS011;4587;51.434;6.788;2024-02-16T07:01:28;5.97;;;2.47;;
9102;SDS011;4587;51.434;6.788;2024-02-16T07:03:53;6.17;;;2.47;;
9102;SDS011;4587;51.434;6.788;2024-02-16T07:06:19;5.47;;;2.00;;
9102;SDS011;4587;51.434;6.788;2024-02-16T07:08:45;6.73;;;2.30;;
9102;SDS011;4587;51.434;6.788;2024-02-16T07:11:10;4.90;;;2.23;;
9102;SDS011;4587;51.434;6.788;2024-02-16T07:13:42;5.90;;;2.67;;
9102;SDS011;4587;51.434;6.788;2024-02-16T07:16:08;5.40;;;2.20;;
9102;SDS011;4587;51.434;6.788;2024-02-16T07:18:33;5.57;;;2.37;;
9102;SDS011;4587;51.434;6.788;2024-02-16T07:20:59;3.30;;;2.50;;
9102;SDS011;4587;51.434;6.788;2024-02-16T07:23:25;3.70;;;2.23;;
9102;SDS011;4587;51.434;6.788;2024-02-16T07:25:51;4.73;;;2.30;;
9102;SDS011;4587;51.434;6.788;2024-02-16T07:28:20;5.83;;;2.50;;
9102;SDS011;4587;51.434;6.788;2024-02-16T07:30:45;4.10;;;2.30;;
9102;SDS011;4587;51.434;6.788;2024-02-16T07:33:11;4.53;;;2.43;;
9102;SDS011;4587;51.434;6.788;2024-02-16T07:35:36;7.50;;;2.30;;
9102;SDS011;4587;51.434;6.788;2024-02-16T07:38:03;5.57;;;2.40;;
9102;SDS011;4587;51.434;6.788;2024-02-16T07:40:28;3.33;;;2.40;;
9102;SDS011;4587;51.434;6.788;2024-02-16T07:42:54;3.97;;;2.33;;
9102;SDS011;4587;51.434;6.788;2024-02-16T07:45:20;5.33;;;2.40;;
9102;SDS011;4587;51.434;6.788;2024-02-16T07:47:46;3.30;;;2.47;;
9102;SDS011;4587;51.434;6.788;2024-02-16T07:50:11;4.10;;;2.20;;
9102;SDS011;4587;51.434;6.788;2024-02-16T07:52:38;6.33;;;2.43;;
9102;SDS011;4587;51.434;6.788;2024-02-16T07:55:05;5.10;;;2.20;;
9102;SDS011;4587;51.434;6.788;2024-02-16T07:57:31;4.37;;;2.40;;
9102;SDS011;4587;51.434;6.788;2024-02-16T07:59:57;3.57;;;2.23;;
9102;SDS011;4587;51.434;6.788;2024-02-16T08:02:22;3.63;;;2.20;;
9102;SDS011;4587;51.434;6.788;2024-02-16T08:04:48;4.77;;;2.50;;
9102;SDS011;4587;51.434;6.788;2024-02-16T08:07:14;6.20;;;2.53;;
9102;SDS011;4587;51.434;6.788;2024-02-16T08:09:43;4.03;;;2.10;;
9102;SDS011;4587;51.434;6.788;2024-02-16T08:12:10;6.67;;;2.40;;
9102;SDS011;4587;51.434;6.788;2024-02-16T08:14:37;4.67;;;2.70;;
9102;SDS011;4587;51.434;6.788;2024-02-16T08:17:06;5.00;;;2.53;;
9102;SDS011;4587;51.434;6.788;2024-02-16T08:19:33;4.63;;;2.70;;
9102;SDS011;4587;51.434;6.788;2024-02-16T08:22:03;5.50;;;2.40;;
9102;SDS011;4587;51.434;6.788;2024-02-16T08:24:31;7.23;;;2.40;;
9102;SDS011;4587;51.434;6.788;2024-02-16T08:26:57;5.07;;;2.70;;
9102;SDS011;4587;51.434;6.788;2024-02-16T08:29:23;4.57;;;2.37;;
9102;SDS011;4587;51.434;6.788;2024-02-16T08:31:50;4.10;;;2.30;;
9102;SDS011;4587;51.434;6.788;2024-02-16T08:34:16;3.43;;;2.43;;
9102;SDS011;4587;51.434;6.788;2024-02-16T08:36:48;5.43;;;2.50;;
9102;SDS011;4587;51.434;6.788;2024-02-16T08:39:14;6.10;;;2.37;;
9102;SDS011;4587;51.434;6.788;2024-02-16T08:41:41;5.77;;;2.53;;
9102;SDS011;4587;51.434;6.788;2024-02-16T08:44:09;6.63;;;2.67;;
9102;SDS011;4587;51.434;6.788;2024-02-16T08:46:35;5.00;;;2.50;;
9102;SDS011;4587;51.434;6.788;2024-02-16T08:49:01;6.47;;;2.70;;
9102;SDS011;4587;51.434;6.788;2024-02-16T08:51:27;4.63;;;2.83;;
9102;SDS011;4587;51.434;6.788;2024-02-16T08:53:53;3.67;;;2.40;;
9102;SDS011;4587;51.434;6.788;2024-02-16T08:56:19;4.70;;;2.30;;
9102;SDS011;4587;51.434;6.788;2024-02-16T08:58:44;2.87;;;2.20;;
9102;SDS011;4587;51.434;6.788;2024-02-16T09:01:10;5.60;;;2.40;;
9102;SDS011;4587;51.434;6.788;2024-02-16T09:03:35;3.53;;;2.20;;
9102;SDS011;4587;51.434;6.788;2024-02-16T09:06:03;3.43;;;2.30;;
9102;SDS011;4587;51.434;6.788;2024-02-16T09:08:29;5.43;;;2.80;;
9102;SDS011;4587;51.434;6.788;2024-02-16T09:11:01;3.70;;;2.23;;
9102;SDS011;4587;51.434;6.788;2024-02-16T09:13:32;5.03;;;2.80;;
9102;SDS011;4587;51.434;6.788;2024-02-16T09:15:57;6.60;;;2.87;;
9102;SDS011;4587;51.434;6.788;2024-02-16T09:18:23;5.40;;;2.70;;
9102;SDS011;4587;51.434;6.788;2024-02-16T09:20:49;6.50;;;2.90;;
9102;SDS011;4587;51.434;6.788;2024-02-16T09:23:14;6.43;;;2.67;;
9102;SDS011;4587;51.434;6.788;2024-02-16T09:25:40;3.97;;;2.50;;
9102;SDS011;4587;51.434;6.788;2024-02-16T09:28:06;5.77;;;2.80;;
9102;SDS011;4587;51.434;6.788;2024-02-16T09:30:32;9.33;;;3.23;;
9102;SDS011;4587;51.434;6.788;2024-02-16T09:32:57;5.17;;;2.87;;
9102;SDS011;4587;51.434;6.788;2024-02-16T09:35:23;6.30;;;2.63;;
9102;SDS011;4587;51.434;6.788;2024-02-16T09:37:49;4.87;;;2.90;;
9102;SDS011;4587;51.434;6.788;2024-02-16T09:40:14;8.43;;;3.00;;
9102;SDS011;4587;51.434;6.788;2024-02-16T09:42:40;8.50;;;3.10;;
9102;SDS011;4587;51.434;6.788;2024-02-16T09:45:06;6.60;;;3.67;;
9102;SDS011;4587;51.434;6.788;2024-02-16T09:47:32;4.60;;;3.20;;
9102;SDS011;4587;51.434;6.788;2024-02-16T09:50:00;4.77;;;2.70;;
9102;SDS011;4587;51.434;6.788;2024-02-16T09:52:26;4.83;;;2.70;;
9102;SDS011;4587;51.434;6.788;2024-02-16T09:54:52;10.17;;;3.57;;
9102;SDS011;4587;51.434;6.788;2024-02-16T09:57:18;9.63;;;3.10;;
9102;SDS011;4587;51.434;6.788;2024-02-16T09:59:44;7.20;;;3.20;;
9102;SDS011;4587;51.434;6.788;2024-02-16T10:02:10;7.17;;;3.33;;
9102;SDS011;4587;51.434;6.788;2024-02-16T10:04:36;6.00;;;2.90;;
9102;SDS011;4587;51.434;6.788;2024-02-16T10:07:01;5.00;;;3.03;;
9102;SDS011;4587;51.434;6.788;2024-02-16T10:09:28;6.67;;;3.00;;
9102;SDS011;4587;51.434;6.788;2024-02-16T10:11:54;5.37;;;2.90;;
9102;SDS011;4587;51.434;6.788;2024-02-16T10:14:20;4.40;;;2.50;;
9102;SDS011;4587;51.434;6.788;2024-02-16T10:16:58;5.07;;;2.60;;
9102;SDS011;4587;51.434;6.788;2024-02-16T10:19:27;9.13;;;3.30;;
9102;SDS011;4587;51.434;6.788;2024-02-16T10:21:53;5.10;;;2.90;;
9102;SDS011;4587;51.434;6.788;2024-02-16T10:24:21;6.43;;;3.10;;
9102;SDS011;4587;51.434;6.788;2024-02-16T10:26:47;5.67;;;3.07;;
9102;SDS011;4587;51.434;6.788;2024-02-16T10:29:15;4.70;;;2.90;;
9102;SDS011;4587;51.434;6.788;2024-02-16T10:31:44;7.93;;;3.30;;
9102;SDS011;4587;51.434;6.788;2024-02-16T10:34:10;6.10;;;3.10;;
9102;SDS011;4587;51.434;6.788;2024-02-16T10:36:36;4.27;;;2.90;;
9102;SDS011;4587;51.434;6.788;2024-02-16T10:39:04;6.07;;;3.30;;
9102;SDS011;4587;51.434;6.788;2024-02-16T10:41:35;9.10;;;3.37;;
9102;SDS011;4587;51.434;6.788;2024-02-16T10:44:03;6.67;;;3.20;;
9102;SDS011;4587;51.434;6.788;2024-02-16T10:46:29;6.63;;;3.27;;
9102;SDS011;4587;51.434;6.788;2024-02-16T10:48:55;8.10;;;3.30;;
9102;SDS011;4587;51.434;6.788;2024-02-16T10:51:28;7.33;;;3.40;;
9102;SDS011;4587;51.434;6.788;2024-02-16T10:54:03;7.07;;;3.40;;
9102;SDS011;4587;51.434;6.788;2024-02-16T10:56:36;6.67;;;3.40;;
9102;SDS011;4587;51.434;6.788;2024-02-16T10:59:03;6.17;;;3.77;;
9102;SDS011;4587;51.434;6.788;2024-02-16T11:01:37;7.93;;;3.80;;
9102;SDS011;4587;51.434;6.788;2024-02-16T11:04:07;11.07;;;3.80;;
9102;SDS011;4587;51.434;6.788;2024-02-16T11:06:46;7.37;;;3.23;;
9102;SDS011;4587;51.434;6.788;2024-02-16T11:09:27;8.63;;;3.40;;
9102;SDS011;4587;51.434;6.788;2024-02-16T11:12:00;6.17;;;3.40;;
9102;SDS011;4587;51.434;6.788;2024-02-16T11:14:34;8.77;;;3.60;;
9102;SDS011;4587;51.434;6.788;2024-02-16T11:17:01;10.50;;;3.60;;
9102;SDS011;4587;51.434;6.788;2024-02-16T11:19:31;6.57;;;3.40;;
9102;SDS011;4587;51.434;6.788;2024-02-16T11:21:58;8.13;;;3.40;;
9102;SDS011;4587;51.434;6.788;2024-02-16T11:24:33;8.03;;;3.33;;
9102;SDS011;4587;51.434;6.788;2024-02-16T11:27:02;7.67;;;3.80;;
9102;SDS011;4587;51.434;6.788;2024-02-16T11:29:33;7.83;;;3.77;;
9102;SDS011;4587;51.434;6.788;2024-02-16T11:32:00;9.67;;;3.87;;
9102;SDS011;4587;51.434;6.788;2024-02-16T11:34:28;10.23;;;4.00;;
9102;SDS011;4587;51.434;6.788;2024-02-16T11:36:57;9.30;;;4.33;;
9102;SDS011;4587;51.434;6.788;2024-02-16T11:39:23;6.67;;;3.23;;
9102;SDS011;4587;51.434;6.788;2024-02-16T11:44:36;6.80;;;3.73;;
9102;SDS011;4587;51.434;6.788;2024-02-16T11:47:07;9.03;;;3.90;;
9102;SDS011;4587;51.434;6.788;2024-02-16T11:49:37;8.70;;;3.67;;
9102;SDS011;4587;51.434;6.788;2024-02-16T11:52:06;7.77;;;3.80;;
9102;SDS011;4587;51.434;6.788;2024-02-16T11:54:32;10.03;;;3.97;;
9102;SDS011;4587;51.434;6.788;2024-02-16T11:56:58;6.27;;;3.57;;
9102;SDS011;4587;51.434;6.788;2024-02-16T11:59:23;8.57;;;3.67;;
9102;SDS011;4587;51.434;6.788;2024-02-16T12:01:50;7.07;;;3.30;;
9102;SDS011;4587;51.434;6.788;2024-02-16T12:04:24;7.50;;;3.97;;
9102;SDS011;4587;51.434;6.788;2024-02-16T12:06:55;10.73;;;4.37;;
9102;SDS011;4587;51.434;6.788;2024-02-16T12:09:25;8.43;;;4.20;;
9102;SDS011;4587;51.434;6.788;2024-02-16T12:11:54;10.83;;;4.70;;
9102;SDS011;4587;51.434;6.788;2024-02-16T12:14:21;10.37;;;4.40;;
9102;SDS011;4587;51.434;6.788;2024-02-16T12:16:48;10.20;;;4.53;;
9102;SDS011;4587;51.434;6.788;2024-02-16T12:19:14;8.43;;;4.70;;
9102;SDS011;4587;51.434;6.788;2024-02-16T12:21:40;12.90;;;4.73;;
9102;SDS011;4587;51.434;6.788;2024-02-16T12:24:06;9.87;;;5.13;;
9102;SDS011;4587;51.434;6.788;2024-02-16T12:26:31;10.20;;;5.10;;
9102;SDS011;4587;51.434;6.788;2024-02-16T12:28:57;9.93;;;5.23;;
9102;SDS011;4587;51.434;6.788;2024-02-16T12:31:23;14.90;;;5.57;;
9102;SDS011;4587;51.434;6.788;2024-02-16T12:33:49;11.07;;;5.20;;
9102;SDS011;4587;51.434;6.788;2024-02-16T12:36:14;14.17;;;5.20;;
9102;SDS011;4587;51.434;6.788;2024-02-16T12:38:40;10.73;;;5.30;;
9102;SDS011;4587;51.434;6.788;2024-02-16T12:41:05;12.17;;;5.80;;
9102;SDS011;4587;51.434;6.788;2024-02-16T12:43:31;11.50;;;5.70;;
9102;SDS011;4587;51.434;6.788;2024-02-16T12:45:57;12.07;;;6.40;;
9102;SDS011;4587;51.434;6.788;2024-02-16T12:48:26;11.33;;;5.53;;
9102;SDS011;4587;51.434;6.788;2024-02-16T12:50:52;12.43;;;5.80;;
9102;SDS011;4587;51.434;6.788;2024-02-16T12:53:18;17.50;;;6.47;;
9102;SDS011;4587;51.434;6.788;2024-02-16T12:55:43;10.63;;;6.10;;
9102;SDS011;4587;51.434;6.788;2024-02-16T12:58:09;11.57;;;6.13;;
9102;SDS011;4587;51.434;6.788;2024-02-16T13:00:34;10.77;;;5.80;;
9102;SDS011;4587;51.434;6.788;2024-02-16T13:03:01;14.73;;;5.93;;
9102;SDS011;4587;51.434;6.788;2024-02-16T13:05:27;12.37;;;6.40;;
9102;SDS011;4587;51.434;6.788;2024-02-16T13:07:52;11.23;;;6.00;;
9102;SDS011;4587;51.434;6.788;2024-02-16T13:10:18;12.77;;;6.23;;
9102;SDS011;4587;51.434;6.788;2024-02-16T13:12:44;12.67;;;6.37;;
9102;SDS011;4587;51.434;6.788;2024-02-16T13:15:10;13.30;;;6.93;;
9102;SDS011;4587;51.434;6.788;2024-02-16T13:17:35;11.37;;;6.13;;
9102;SDS011;4587;51.434;6.788;2024-02-16T13:20:01;14.63;;;6.87;;
9102;SDS011;4587;51.434;6.788;2024-02-16T13:22:38;13.33;;;6.87;;
9102;SDS011;4587;51.434;6.788;2024-02-16T13:25:04;12.80;;;7.70;;
9102;SDS011;4587;51.434;6.788;2024-02-16T13:27:31;11.47;;;6.77;;
9102;SDS011;4587;51.434;6.788;2024-02-16T13:29:57;16.00;;;6.93;;
9102;SDS011;4587;51.434;6.788;2024-02-16T13:32:23;13.57;;;7.10;;
9102;SDS011;4587;51.434;6.788;2024-02-16T13:34:49;12.53;;;7.33;;
9102;SDS011;4587;51.434;6.788;2024-02-16T13:37:14;14.83;;;7.57;;
9102;SDS011;4587;51.434;6.788;2024-02-16T13:39:40;11.07;;;7.60;;
9102;SDS011;4587;51.434;6.788;2024-02-16T13:42:05;16.83;;;7.83;;
9102;SDS011;4587;51.434;6.788;2024-02-16T13:44:31;10.47;;;7.63;;
9102;SDS011;4587;51.434;6.788;2024-02-16T13:46:57;14.20;;;9.33;;
9102;SDS011;4587;51.434;6.788;2024-02-16T13:49:22;11.73;;;7.97;;
9102;SDS011;4587;51.434;6.788;2024-02-16T13:51:48;12.97;;;9.60;;
9102;SDS011;4587;51.434;6.788;2024-02-16T13:54:14;16.77;;;8.90;;
9102;SDS011;4587;51.434;6.788;2024-02-16T13:56:39;18.53;;;9.00;;
9102;SDS011;4587;51.434;6.788;2024-02-16T13:59:05;20.47;;;10.30;;
9102;SDS011;4587;51.434;6.788;2024-02-16T14:01:32;17.50;;;9.73;;
9102;SDS011;4587;51.434;6.788;2024-02-16T14:03:59;20.33;;;10.87;;
9102;SDS011;4587;51.434;6.788;2024-02-16T14:06:25;14.37;;;9.10;;
9102;SDS011;4587;51.434;6.788;2024-02-16T14:08:50;18.27;;;10.77;;
9102;SDS011;4587;51.434;6.788;2024-02-16T14:11:18;18.47;;;9.53;;
9102;SDS011;4587;51.434;6.788;2024-02-16T14:13:43;20.13;;;10.20;;
9102;SDS011;4587;51.434;6.788;2024-02-16T14:16:09;14.80;;;9.93;;
9102;SDS011;4587;51.434;6.788;2024-02-16T14:18:35;19.00;;;10.23;;
9102;SDS011;4587;51.434;6.788;2024-02-16T14:21:01;13.67;;;8.93;;
9102;SDS011;4587;51.434;6.788;2024-02-16T14:23:28;12.23;;;8.57;;
9102;SDS011;4587;51.434;6.788;2024-02-16T14:25:54;11.97;;;8.00;;
9102;SDS011;4587;51.434;6.788;2024-02-16T14:28:20;12.77;;;8.77;;
9102;SDS011;4587;51.434;6.788;2024-02-16T14:30:46;13.83;;;8.10;;
9102;SDS011;4587;51.434;6.788;2024-02-16T14:33:11;9.07;;;7.50;;
9102;SDS011;4587;51.434;6.788;2024-02-16T14:35:37;9.17;;;7.50;;
9102;SDS011;4587;51.434;6.788;2024-02-16T14:38:03;12.30;;;7.77;;
9102;SDS011;4587;51.434;6.788;2024-02-16T14:40:30;11.40;;;7.63;;
9102;SDS011;4587;51.434;6.788;2024-02-16T14:42:55;10.27;;;7.60;;
9102;SDS011;4587;51.434;6.788;2024-02-16T14:45:21;11.63;;;7.03;;
9102;SDS011;4587;51.434;6.788;2024-02-16T14:47:50;9.63;;;6.97;;
9102;SDS011;4587;51.434;6.788;2024-02-16T14:50:15;10.87;;;7.27;;
9102;SDS011;4587;51.434;6.788;2024-02-16T14:52:42;10.13;;;7.87;;
9102;SDS011;4587;51.434;6.788;2024-02-16T14:55:10;8.23;;;6.67;;
9102;SDS011;4587;51.434;6.788;2024-02-16T14:57:37;7.20;;;6.50;;
9102;SDS011;4587;51.434;6.788;2024-02-16T15:00:03;10.87;;;6.90;;
9102;SDS011;4587;51.434;6.788;2024-02-16T15:02:29;6.73;;;6.10;;
9102;SDS011;4587;51.434;6.788;2024-02-16T15:04:54;9.20;;;6.63;;
9102;SDS011;4587;51.434;6.788;2024-02-16T15:07:20;8.27;;;7.47;;
9102;SDS011;4587;51.434;6.788;2024-02-16T15:09:45;7.20;;;6.50;;